sensor_id;sensor_type;location;lat;lon;timestamp;pressure;altitude;pressure_sealevel;temperature;humidity
33155;BME280;19511;42.682;23.332;2023-05-20T00:00:24;95455.13;;;10.70;100.00
33155;BME280;19511;42.682;23.332;2023-05-20T00:02:49;95473.16;;;10.97;100.00
33155;BME280;19511;42.682;23.332;2023-05-20T00:05:21;95508.25;;;11.10;100.00
33155;BME280;19511;42.682;23.332;2023-05-20T00:07:47;95449.25;;;10.61;100.00
33155;BME280;19511;42.682;23.332;2023-05-20T00:10:12;95500.88;;;10.89;100.00
33155;BME280;19511;42.682;23.332;2023-05-20T00:12:38;95512.31;;;10.91;100.00
33155;BME280;19511;42.682;23.332;2023-05-20T00:15:04;95522.63;;;10.87;100.00
33155;BME280;19511;42.682;23.332;2023-05-20T00:17:30;95516.34;;;10.83;100.00
33155;BME280;19511;42.682;23.332;2023-05-20T00:19:55;95512.81;;;10.75;100.00
33155;BME280;19511;42.682;23.332;2023-05-20T00:22:21;95457.63;;;10.32;100.00
33155;BME280;19511;42.682;23.332;2023-05-20T00:24:47;95492.34;;;10.55;100.00
33155;BME280;19511;42.682;23.332;2023-05-20T00:27:12;95493.50;;;10.57;100.00
33155;BME280;19511;42.682;23.332;2023-05-20T00:29:37;95503.03;;;10.56;100.00
33155;BME280;19511;42.682;23.332;2023-05-20T00:32:03;95490.41;;;10.48;100.00
33155;BME280;19511;42.682;23.332;2023-05-20T00:34:29;95485.63;;;10.56;100.00
33155;BME280;19511;42.682;23.332;2023-05-20T00:36:54;95411.53;;;10.07;100.00
33155;BME280;19511;42.682;23.332;2023-05-20T00:39:20;95482.09;;;10.52;100.00
33155;BME280;19511;42.682;23.332;2023-05-20T00:41:45;95496.69;;;10.59;100.00
33155;BME280;19511;42.682;23.332;2023-05-20T00:44:10;95439.09;;;10.33;100.00
33155;BME280;19511;42.682;23.332;2023-05-20T00:46:36;95492.66;;;10.71;100.00
33155;BME280;19511;42.682;23.332;2023-05-20T00:49:02;95482.00;;;10.73;100.00
33155;BME280;19511;42.682;23.332;2023-05-20T00:51:27;95443.72;;;10.57;100.00
33155;BME280;19511;42.682;23.332;2023-05-20T00:53:54;95470.53;;;10.71;100.00
33155;BME280;19511;42.682;23.332;2023-05-20T00:56:20;95483.56;;;10.78;100.00
33155;BME280;19511;42.682;23.332;2023-05-20T00:58:46;95400.41;;;10.25;100.00
33155;BME280;19511;42.682;23.332;2023-05-20T01:01:11;95401.56;;;10.28;100.00
33155;BME280;19511;42.682;23.332;2023-05-20T01:03:37;95440.59;;;10.52;100.00
33155;BME280;19511;42.682;23.332;2023-05-20T01:06:03;95487.13;;;10.71;100.00
33155;BME280;19511;42.682;23.332;2023-05-20T01:08:28;95377.59;;;10.07;100.00
33155;BME280;19511;42.682;23.332;2023-05-20T01:11:47;95477.72;;;10.58;100.00
33155;BME280;19511;42.682;23.332;2023-05-20T01:13:54;95483.25;;;10.54;100.00
33155;BME280;19511;42.682;23.332;2023-05-20T01:16:22;95406.44;;;9.91;100.00
33155;BME280;19511;42.682;23.332;2023-05-20T01:18:50;95480.97;;;10.31;100.00
33155;BME280;19511;42.682;23.332;2023-05-20T01:21:19;95438.41;;;10.03;100.00
33155;BME280;19511;42.682;23.332;2023-05-20T01:23:46;95393.50;;;9.70;100.00
33155;BME280;19511;42.682;23.332;2023-05-20T01:26:12;95477.81;;;10.22;100.00
33155;BME280;19511;42.682;23.332;2023-05-20T01:28:38;95481.38;;;10.22;100.00
33155;BME280;19511;42.682;23.332;2023-05-20T01:31:05;95473.50;;;10.10;100.00
33155;BME280;19511;42.682;23.332;2023-05-20T01:33:35;95463.28;;;10.03;100.00
33155;BME280;19511;42.682;23.332;2023-05-20T01:36:01;95436.47;;;9.86;100.00
33155;BME280;19511;42.682;23.332;2023-05-20T01:38:27;95472.34;;;10.07;100.00
33155;BME280;19511;42.682;23.332;2023-05-20T01:40:54;95433.72;;;9.86;100.00
33155;BME280;19511;42.682;23.332;2023-05-20T01:43:21;95397.03;;;9.74;100.00
33155;BME280;19511;42.682;23.332;2023-05-20T01:45:47;95419.91;;;9.75;100.00
33155;BME280;19511;42.682;23.332;2023-05-20T01:48:13;95485.75;;;10.12;100.00
33155;BME280;19511;42.682;23.332;2023-05-20T01:50:39;95479.06;;;10.03;100.00
33155;BME280;19511;42.682;23.332;2023-05-20T01:53:04;95488.91;;;10.07;100.00
33155;BME280;19511;42.682;23.332;2023-05-20T01:55:32;95467.59;;;10.11;100.00
33155;BME280;19511;42.682;23.332;2023-05-20T01:57:58;95454.59;;;9.97;100.00
33155;BME280;19511;42.682;23.332;2023-05-20T02:00:23;95475.50;;;10.09;100.00
33155;BME280;19511;42.682;23.332;2023-05-20T02:02:49;95468.41;;;9.97;100.00
33155;BME280;19511;42.682;23.332;2023-05-20T02:05:15;95484.13;;;10.26;100.00
33155;BME280;19511;42.682;23.332;2023-05-20T02:07:40;95487.31;;;10.13;100.00
33155;BME280;19511;42.682;23.332;2023-05-20T02:10:06;95474.31;;;10.07;100.00
33155;BME280;19511;42.682;23.332;2023-05-20T02:12:32;95462.88;;;10.01;100.00
33155;BME280;19511;42.682;23.332;2023-05-20T02:14:57;95451.06;;;9.86;100.00
33155;BME280;19511;42.682;23.332;2023-05-20T02:17:23;95470.41;;;9.90;100.00
33155;BME280;19511;42.682;23.332;2023-05-20T02:19:48;95471.97;;;9.87;100.00
33155;BME280;19511;42.682;23.332;2023-05-20T02:22:14;95478.69;;;9.83;100.00
33155;BME280;19511;42.682;23.332;2023-05-20T02:24:39;95462.16;;;9.79;100.00
33155;BME280;19511;42.682;23.332;2023-05-20T02:27:05;95461.75;;;9.80;100.00
33155;BME280;19511;42.682;23.332;2023-05-20T02:29:31;95465.69;;;9.79;100.00
33155;BME280;19511;42.682;23.332;2023-05-20T02:31:57;95447.56;;;9.68;100.00
33155;BME280;19511;42.682;23.332;2023-05-20T02:34:22;95461.34;;;9.71;100.00
33155;BME280;19511;42.682;23.332;2023-05-20T02:36:50;95468.03;;;9.77;100.00
33155;BME280;19511;42.682;23.332;2023-05-20T02:39:15;95447.97;;;9.62;100.00
33155;BME280;19511;42.682;23.332;2023-05-20T02:41:41;95389.59;;;9.28;100.00
33155;BME280;19511;42.682;23.332;2023-05-20T02:44:06;95462.16;;;9.68;100.00
33155;BME280;19511;42.682;23.332;2023-05-20T02:46:32;95472.41;;;9.82;100.00
33155;BME280;19511;42.682;23.332;2023-05-20T02:48:58;95468.84;;;9.82;100.00
33155;BME280;19511;42.682;23.332;2023-05-20T02:51:25;95382.13;;;9.32;100.00
33155;BME280;19511;42.682;23.332;2023-05-20T02:53:50;95380.97;;;9.29;100.00
33155;BME280;19511;42.682;23.332;2023-05-20T02:56:16;95459.34;;;9.83;100.00
33155;BME280;19511;42.682;23.332;2023-05-20T02:58:46;95445.56;;;9.75;100.00
33155;BME280;19511;42.682;23.332;2023-05-20T03:01:11;95466.09;;;9.78;100.00
33155;BME280;19511;42.682;23.332;2023-05-20T03:03:37;95470.44;;;9.79;100.00
33155;BME280;19511;42.682;23.332;2023-05-20T03:06:02;95483.84;;;9.80;100.00
33155;BME280;19511;42.682;23.332;2023-05-20T03:08:28;95476.75;;;9.72;100.00
33155;BME280;19511;42.682;23.332;2023-05-20T03:10:53;95490.56;;;9.65;100.00
33155;BME280;19511;42.682;23.332;2023-05-20T03:13:19;95489.78;;;9.64;100.00
33155;BME280;19511;42.682;23.332;2023-05-20T03:15:44;95491.34;;;9.62;100.00
33155;BME280;19511;42.682;23.332;2023-05-20T03:18:10;95506.34;;;9.68;100.00
33155;BME280;19511;42.682;23.332;2023-05-20T03:20:39;95504.75;;;9.63;100.00
33155;BME280;19511;42.682;23.332;2023-05-20T03:23:06;95509.13;;;9.54;100.00
33155;BME280;19511;42.682;23.332;2023-05-20T03:25:31;95508.72;;;9.59;100.00
33155;BME280;19511;42.682;23.332;2023-05-20T03:27:57;95475.19;;;9.39;100.00
33155;BME280;19511;42.682;23.332;2023-05-20T03:30:23;95492.94;;;9.70;100.00
33155;BME280;19511;42.682;23.332;2023-05-20T03:32:49;95483.84;;;9.66;100.00
33155;BME280;19511;42.682;23.332;2023-05-20T03:35:15;95437.34;;;9.28;100.00
33155;BME280;19511;42.682;23.332;2023-05-20T03:37:40;95467.69;;;9.46;100.00
33155;BME280;19511;42.682;23.332;2023-05-20T03:40:07;95490.97;;;9.53;100.00
33155;BME280;19511;42.682;23.332;2023-05-20T03:42:34;95492.53;;;9.61;100.00
33155;BME280;19511;42.682;23.332;2023-05-20T03:45:00;95408.16;;;9.13;100.00
33155;BME280;19511;42.682;23.332;2023-05-20T03:47:26;95497.66;;;9.70;100.00
33155;BME280;19511;42.682;23.332;2023-05-20T03:49:51;95498.44;;;9.85;100.00
33155;BME280;19511;42.682;23.332;2023-05-20T03:52:17;95497.66;;;9.84;100.00
33155;BME280;19511;42.682;23.332;2023-05-20T03:54:43;95514.97;;;9.99;100.00
33155;BME280;19511;42.682;23.332;2023-05-20T03:57:08;95514.56;;;10.11;100.00
33155;BME280;19511;42.682;23.332;2023-05-20T03:59:35;95473.94;;;10.01;100.00
33155;BME280;19511;42.682;23.332;2023-05-20T04:02:01;95496.75;;;10.41;100.00
33155;BME280;19511;42.682;23.332;2023-05-20T04:04:26;95502.63;;;10.51;100.00
33155;BME280;19511;42.682;23.332;2023-05-20T04:06:52;95520.38;;;10.60;100.00
33155;BME280;19511;42.682;23.332;2023-05-20T04:09:18;95521.16;;;10.65;100.00
33155;BME280;19511;42.682;23.332;2023-05-20T04:11:44;95512.06;;;10.64;100.00
33155;BME280;19511;42.682;23.332;2023-05-20T04:14:09;95509.34;;;10.57;100.00
33155;BME280;19511;42.682;23.332;2023-05-20T04:16:35;95536.53;;;10.73;100.00
33155;BME280;19511;42.682;23.332;2023-05-20T04:19:02;95521.50;;;10.77;100.00
33155;BME280;19511;42.682;23.332;2023-05-20T04:21:27;95513.91;;;10.89;100.00
33155;BME280;19511;42.682;23.332;2023-05-20T04:23:53;95509.53;;;10.95;100.00
33155;BME280;19511;42.682;23.332;2023-05-20T04:26:18;95442.97;;;10.53;100.00
33155;BME280;19511;42.682;23.332;2023-05-20T04:28:45;95514.94;;;11.20;100.00
33155;BME280;19511;42.682;23.332;2023-05-20T04:31:13;95512.44;;;11.37;100.00
33155;BME280;19511;42.682;23.332;2023-05-20T04:33:38;95504.88;;;11.44;100.00
33155;BME280;19511;42.682;23.332;2023-05-20T04:36:06;95518.13;;;11.71;100.00
33155;BME280;19511;42.682;23.332;2023-05-20T04:38:31;95493.63;;;11.66;100.00
33155;BME280;19511;42.682;23.332;2023-05-20T04:40:58;95442.31;;;11.51;100.00
33155;BME280;19511;42.682;23.332;2023-05-20T04:43:25;95519.78;;;12.11;100.00
33155;BME280;19511;42.682;23.332;2023-05-20T04:45:58;95523.97;;;12.26;100.00
33155;BME280;19511;42.682;23.332;2023-05-20T04:48:30;95477.44;;;12.06;100.00
33155;BME280;19511;42.682;23.332;2023-05-20T04:50:56;95519.84;;;12.41;100.00
33155;BME280;19511;42.682;23.332;2023-05-20T04:53:22;95513.34;;;12.55;100.00
33155;BME280;19511;42.682;23.332;2023-05-20T04:55:53;95527.75;;;12.78;100.00
33155;BME280;19511;42.682;23.332;2023-05-20T04:58:21;95463.53;;;12.45;100.00
33155;BME280;19511;42.682;23.332;2023-05-20T05:00:51;95514.66;;;12.78;100.00
33155;BME280;19511;42.682;23.332;2023-05-20T05:03:17;95432.94;;;12.17;100.00
33155;BME280;19511;42.682;23.332;2023-05-20T05:05:43;95515.53;;;12.71;100.00
33155;BME280;19511;42.682;23.332;2023-05-20T05:08:09;95381.00;;;11.83;100.00
33155;BME280;19511;42.682;23.332;2023-05-20T05:10:38;95452.25;;;12.28;100.00
33155;BME280;19511;42.682;23.332;2023-05-20T05:13:03;95510.41;;;12.70;100.00
33155;BME280;19511;42.682;23.332;2023-05-20T05:15:29;95472.16;;;12.54;100.00
33155;BME280;19511;42.682;23.332;2023-05-20T05:17:55;95530.63;;;13.01;100.00
33155;BME280;19511;42.682;23.332;2023-05-20T05:20:21;95526.81;;;13.19;100.00
33155;BME280;19511;42.682;23.332;2023-05-20T05:22:46;95503.19;;;13.34;100.00
33155;BME280;19511;42.682;23.332;2023-05-20T05:25:12;95436.53;;;13.07;100.00
33155;BME280;19511;42.682;23.332;2023-05-20T05:27:38;95518.13;;;13.71;100.00
33155;BME280;19511;42.682;23.332;2023-05-20T05:30:05;95495.16;;;13.67;100.00
33155;BME280;19511;42.682;23.332;2023-05-20T05:32:31;95506.16;;;13.98;100.00
33155;BME280;19511;42.682;23.332;2023-05-20T05:34:57;95495.22;;;14.11;100.00
33155;BME280;19511;42.682;23.332;2023-05-20T05:37:23;95504.38;;;14.32;100.00
33155;BME280;19511;42.682;23.332;2023-05-20T05:39:48;95501.81;;;14.41;100.00
33155;BME280;19511;42.682;23.332;2023-05-20T05:42:17;95495.09;;;14.59;100.00
33155;BME280;19511;42.682;23.332;2023-05-20T05:44:42;95485.47;;;14.63;100.00
33155;BME280;19511;42.682;23.332;2023-05-20T05:47:08;95471.78;;;14.73;100.00
33155;BME280;19511;42.682;23.332;2023-05-20T05:49:34;95487.69;;;14.92;100.00
33155;BME280;19511;42.682;23.332;2023-05-20T05:51:59;95504.47;;;15.09;100.00
33155;BME280;19511;42.682;23.332;2023-05-20T05:54:25;95485.69;;;15.29;100.00
33155;BME280;19511;42.682;23.332;2023-05-20T05:56:51;95479.75;;;15.27;100.00
33155;BME280;19511;42.682;23.332;2023-05-20T05:59:17;95411.81;;;14.88;100.00
33155;BME280;19511;42.682;23.332;2023-05-20T06:01:43;95481.53;;;15.38;100.00
33155;BME280;19511;42.682;23.332;2023-05-20T06:04:08;95471.06;;;15.42;100.00
33155;BME280;19511;42.682;23.332;2023-05-20T06:06:34;95442.13;;;15.19;100.00
33155;BME280;19511;42.682;23.332;2023-05-20T06:09:00;95470.72;;;15.56;100.00
33155;BME280;19511;42.682;23.332;2023-05-20T06:11:25;95465.50;;;15.58;100.00
33155;BME280;19511;42.682;23.332;2023-05-20T06:13:51;95461.22;;;15.54;100.00
33155;BME280;19511;42.682;23.332;2023-05-20T06:16:16;95468.63;;;15.77;100.00
33155;BME280;19511;42.682;23.332;2023-05-20T06:18:46;95460.63;;;15.95;100.00
33155;BME280;19511;42.682;23.332;2023-05-20T06:21:14;95460.69;;;16.08;100.00
33155;BME280;19511;42.682;23.332;2023-05-20T06:23:39;95457.06;;;16.24;100.00
33155;BME280;19511;42.682;23.332;2023-05-20T06:26:05;95461.28;;;16.45;100.00
33155;BME280;19511;42.682;23.332;2023-05-20T06:28:30;95457.28;;;16.59;100.00
33155;BME280;19511;42.682;23.332;2023-05-20T06:30:56;95394.09;;;16.23;100.00
33155;BME280;19511;42.682;23.332;2023-05-20T06:33:26;95443.69;;;16.74;100.00
33155;BME280;19511;42.682;23.332;2023-05-20T06:35:57;95454.16;;;17.00;100.00
33155;BME280;19511;42.682;23.332;2023-05-20T06:38:23;95442.78;;;17.07;100.00
33155;BME280;19511;42.682;23.332;2023-05-20T06:40:53;95442.31;;;17.21;100.00
33155;BME280;19511;42.682;23.332;2023-05-20T06:43:18;95437.84;;;17.24;100.00
33155;BME280;19511;42.682;23.332;2023-05-20T06:45:44;95432.50;;;17.29;100.00
33155;BME280;19511;42.682;23.332;2023-05-20T06:48:09;95399.84;;;17.26;100.00
33155;BME280;19511;42.682;23.332;2023-05-20T06:50:35;95419.09;;;17.24;100.00
33155;BME280;19511;42.682;23.332;2023-05-20T06:53:01;95427.34;;;17.41;100.00
33155;BME280;19511;42.682;23.332;2023-05-20T06:55:26;95432.81;;;17.57;100.00
33155;BME280;19511;42.682;23.332;2023-05-20T06:57:56;95433.00;;;17.63;100.00
33155;BME280;19511;42.682;23.332;2023-05-20T07:00:22;95419.16;;;17.59;100.00
33155;BME280;19511;42.682;23.332;2023-05-20T07:02:50;95439.81;;;17.75;100.00
33155;BME280;19511;42.682;23.332;2023-05-20T07:05:16;95424.50;;;17.67;100.00
33155;BME280;19511;42.682;23.332;2023-05-20T07:07:41;95422.56;;;17.89;100.00
33155;BME280;19511;42.682;23.332;2023-05-20T07:10:07;95409.59;;;17.95;100.00
33155;BME280;19511;42.682;23.332;2023-05-20T07:12:33;95421.31;;;18.25;100.00
33155;BME280;19511;42.682;23.332;2023-05-20T07:14:58;95420.84;;;18.40;100.00
33155;BME280;19511;42.682;23.332;2023-05-20T07:17:24;95426.44;;;18.40;100.00
33155;BME280;19511;42.682;23.332;2023-05-20T07:19:50;95359.91;;;18.09;100.00
33155;BME280;19511;42.682;23.332;2023-05-20T07:22:16;95419.13;;;18.65;100.00
33155;BME280;19511;42.682;23.332;2023-05-20T07:24:41;95410.50;;;18.81;100.00
33155;BME280;19511;42.682;23.332;2023-05-20T07:27:07;95411.47;;;18.87;100.00
33155;BME280;19511;42.682;23.332;2023-05-20T07:29:34;95399.94;;;18.85;100.00
33155;BME280;19511;42.682;23.332;2023-05-20T07:32:00;95405.06;;;19.09;100.00
33155;BME280;19511;42.682;23.332;2023-05-20T07:34:25;95396.66;;;19.09;100.00
33155;BME280;19511;42.682;23.332;2023-05-20T07:36:51;95401.47;;;19.08;100.00
33155;BME280;19511;42.682;23.332;2023-05-20T07:39:17;95408.84;;;19.24;100.00
33155;BME280;19511;42.682;23.332;2023-05-20T07:41:46;95415.31;;;19.44;100.00
33155;BME280;19511;42.682;23.332;2023-05-20T07:44:11;95405.22;;;19.55;100.00
33155;BME280;19511;42.682;23.332;2023-05-20T07:46:38;95406.47;;;19.64;100.00
33155;BME280;19511;42.682;23.332;2023-05-20T07:49:04;95341.88;;;19.27;100.00
33155;BME280;19511;42.682;23.332;2023-05-20T07:51:29;95401.53;;;19.77;100.00
33155;BME280;19511;42.682;23.332;2023-05-20T07:53:56;95401.13;;;19.97;100.00
33155;BME280;19511;42.682;23.332;2023-05-20T07:56:21;95399.22;;;20.03;100.00
33155;BME280;19511;42.682;23.332;2023-05-20T07:58:58;95405.03;;;20.09;100.00
33155;BME280;19511;42.682;23.332;2023-05-20T08:01:24;95404.25;;;20.18;100.00
33155;BME280;19511;42.682;23.332;2023-05-20T08:03:50;95333.53;;;19.64;100.00
33155;BME280;19511;42.682;23.332;2023-05-20T08:06:16;95409.72;;;20.21;100.00
33155;BME280;19511;42.682;23.332;2023-05-20T08:08:42;95335.91;;;19.84;100.00
33155;BME280;19511;42.682;23.332;2023-05-20T08:11:08;95381.16;;;20.23;100.00
33155;BME280;19511;42.682;23.332;2023-05-20T08:13:33;95387.84;;;20.26;100.00
33155;BME280;19511;42.682;23.332;2023-05-20T08:15:58;95403.63;;;20.23;100.00
33155;BME280;19511;42.682;23.332;2023-05-20T08:18:24;95390.66;;;20.26;100.00
33155;BME280;19511;42.682;23.332;2023-05-20T08:20:51;95380.81;;;20.21;100.00
33155;BME280;19511;42.682;23.332;2023-05-20T08:23:17;95391.13;;;20.24;100.00
33155;BME280;19511;42.682;23.332;2023-05-20T08:25:42;95385.81;;;20.17;100.00
33155;BME280;19511;42.682;23.332;2023-05-20T08:28:12;95395.66;;;20.31;100.00
33155;BME280;19511;42.682;23.332;2023-05-20T08:30:39;95378.34;;;20.23;100.00
33155;BME280;19511;42.682;23.332;2023-05-20T08:33:05;95331.69;;;20.07;100.00
33155;BME280;19511;42.682;23.332;2023-05-20T08:35:31;95372.53;;;20.45;100.00
33155;BME280;19511;42.682;23.332;2023-05-20T08:37:56;95380.97;;;20.45;100.00
33155;BME280;19511;42.682;23.332;2023-05-20T08:40:22;95372.84;;;20.29;100.00
33155;BME280;19511;42.682;23.332;2023-05-20T08:42:50;95377.22;;;20.11;100.00
33155;BME280;19511;42.682;23.332;2023-05-20T08:45:18;95385.19;;;20.41;100.00
33155;BME280;19511;42.682;23.332;2023-05-20T08:47:45;95338.88;;;19.99;100.00
33155;BME280;19511;42.682;23.332;2023-05-20T08:50:12;95331.84;;;20.03;100.00
33155;BME280;19511;42.682;23.332;2023-05-20T08:52:42;95390.97;;;20.28;100.00
33155;BME280;19511;42.682;23.332;2023-05-20T08:55:13;95398.13;;;20.29;100.00
33155;BME280;19511;42.682;23.332;2023-05-20T08:57:39;95393.75;;;20.46;100.00
33155;BME280;19511;42.682;23.332;2023-05-20T09:00:07;95340.44;;;19.90;100.00
33155;BME280;19511;42.682;23.332;2023-05-20T09:02:40;95374.44;;;19.83;100.00
33155;BME280;19511;42.682;23.332;2023-05-20T09:05:06;95389.41;;;20.08;100.00
33155;BME280;19511;42.682;23.332;2023-05-20T09:07:33;95305.34;;;19.95;100.00
33155;BME280;19511;42.682;23.332;2023-05-20T09:09:58;95355.41;;;20.15;100.00
33155;BME280;19511;42.682;23.332;2023-05-20T09:12:24;95294.28;;;19.82;100.00
33155;BME280;19511;42.682;23.332;2023-05-20T09:14:49;95376.00;;;20.31;100.00
33155;BME280;19511;42.682;23.332;2023-05-20T09:17:15;95365.69;;;20.37;100.00
33155;BME280;19511;42.682;23.332;2023-05-20T09:19:42;95368.50;;;20.37;100.00
33155;BME280;19511;42.682;23.332;2023-05-20T09:22:07;95297.31;;;20.40;100.00
33155;BME280;19511;42.682;23.332;2023-05-20T09:24:32;95357.44;;;20.95;100.00
33155;BME280;19511;42.682;23.332;2023-05-20T09:26:58;95342.88;;;20.53;100.00
33155;BME280;19511;42.682;23.332;2023-05-20T09:29:24;95348.81;;;20.46;100.00
33155;BME280;19511;42.682;23.332;2023-05-20T09:31:50;95363.75;;;20.62;100.00
33155;BME280;19511;42.682;23.332;2023-05-20T09:34:16;95336.75;;;20.64;100.00
33155;BME280;19511;42.682;23.332;2023-05-20T09:36:48;95345.31;;;20.79;100.00
33155;BME280;19511;42.682;23.332;2023-05-20T09:39:16;95344.50;;;20.88;100.00
33155;BME280;19511;42.682;23.332;2023-05-20T09:42:06;95337.44;;;21.02;100.00
33155;BME280;19511;42.682;23.332;2023-05-20T09:44:35;95271.69;;;20.47;100.00
33155;BME280;19511;42.682;23.332;2023-05-20T09:47:04;95347.53;;;20.75;100.00
33155;BME280;19511;42.682;23.332;2023-05-20T09:49:32;95333.47;;;20.75;100.00
33155;BME280;19511;42.682;23.332;2023-05-20T09:52:00;95329.50;;;20.91;100.00
33155;BME280;19511;42.682;23.332;2023-05-20T09:54:27;95257.06;;;20.43;100.00
33155;BME280;19511;42.682;23.332;2023-05-20T09:56:57;95255.94;;;20.50;100.00
33155;BME280;19511;42.682;23.332;2023-05-20T09:59:23;95329.75;;;21.02;100.00
33155;BME280;19511;42.682;23.332;2023-05-20T10:01:51;95254.75;;;20.75;100.00
33155;BME280;19511;42.682;23.332;2023-05-20T10:04:17;95319.03;;;21.25;100.00
33155;BME280;19511;42.682;23.332;2023-05-20T10:07:15;95320.59;;;21.26;100.00
33155;BME280;19511;42.682;23.332;2023-05-20T10:12:41;95283.28;;;21.41;100.00
33155;BME280;19511;42.682;23.332;2023-05-20T10:20:30;95289.78;;;21.32;100.00
33155;BME280;19511;42.682;23.332;2023-05-20T10:22:56;95272.81;;;21.41;100.00
33155;BME280;19511;42.682;23.332;2023-05-20T10:25:28;95222.78;;;21.21;100.00
33155;BME280;19511;42.682;23.332;2023-05-20T10:28:06;95229.97;;;21.22;99.99
33155;BME280;19511;42.682;23.332;2023-05-20T10:30:32;95281.94;;;21.36;99.37
33155;BME280;19511;42.682;23.332;2023-05-20T10:33:02;95294.50;;;21.50;97.86
33155;BME280;19511;42.682;23.332;2023-05-20T10:35:29;95281.75;;;21.64;100.00
33155;BME280;19511;42.682;23.332;2023-05-20T10:38:11;95223.31;;;21.59;97.45
33155;BME280;19511;42.682;23.332;2023-05-20T10:40:37;95269.41;;;22.15;92.67
33155;BME280;19511;42.682;23.332;2023-05-20T10:43:24;95192.56;;;21.55;92.67
33155;BME280;19511;42.682;23.332;2023-05-20T10:45:52;95265.31;;;21.87;92.37
33155;BME280;19511;42.682;23.332;2023-05-20T10:48:20;95246.47;;;21.93;93.04
33155;BME280;19511;42.682;23.332;2023-05-20T10:50:47;95246.28;;;21.81;94.02
33155;BME280;19511;42.682;23.332;2023-05-20T10:53:13;95247.44;;;21.90;97.19
33155;BME280;19511;42.682;23.332;2023-05-20T10:55:40;95252.50;;;21.85;94.49
33155;BME280;19511;42.682;23.332;2023-05-20T10:58:11;95189.31;;;21.47;95.19
33155;BME280;19511;42.682;23.332;2023-05-20T11:00:38;95248.03;;;21.94;97.87
33155;BME280;19511;42.682;23.332;2023-05-20T11:03:05;95184.13;;;21.85;97.48
33155;BME280;19511;42.682;23.332;2023-05-20T11:05:31;95237.59;;;22.39;95.82
33155;BME280;19511;42.682;23.332;2023-05-20T11:08:01;95163.53;;;21.94;96.09
33155;BME280;19511;42.682;23.332;2023-05-20T11:10:27;95179.94;;;21.65;95.80
33155;BME280;19511;42.682;23.332;2023-05-20T11:12:52;95174.13;;;21.30;95.62
33155;BME280;19511;42.682;23.332;2023-05-20T11:15:18;95242.72;;;21.32;96.38
33155;BME280;19511;42.682;23.332;2023-05-20T11:17:59;95165.97;;;20.93;98.99
33155;BME280;19511;42.682;23.332;2023-05-20T11:20:25;95232.28;;;21.72;100.00
33155;BME280;19511;42.682;23.332;2023-05-20T11:22:52;95232.56;;;21.74;99.97
33155;BME280;19511;42.682;23.332;2023-05-20T11:25:18;95124.53;;;21.17;97.19
33155;BME280;19511;42.682;23.332;2023-05-20T11:27:44;95171.44;;;21.50;98.13
33155;BME280;19511;42.682;23.332;2023-05-20T11:30:13;95200.44;;;21.81;96.48
33155;BME280;19511;42.682;23.332;2023-05-20T11:33:01;95210.47;;;21.97;98.16
33155;BME280;19511;42.682;23.332;2023-05-20T11:35:28;95196.75;;;21.90;94.58
33155;BME280;19511;42.682;23.332;2023-05-20T11:40:23;95209.06;;;21.38;98.35
33155;BME280;19511;42.682;23.332;2023-05-20T11:42:54;95205.25;;;21.26;100.00
33155;BME280;19511;42.682;23.332;2023-05-20T11:45:21;95183.00;;;21.13;98.09
33155;BME280;19511;42.682;23.332;2023-05-20T11:47:57;95191.94;;;21.27;100.00
33155;BME280;19511;42.682;23.332;2023-05-20T11:50:23;95086.50;;;20.34;99.47
33155;BME280;19511;42.682;23.332;2023-05-20T11:52:57;95186.72;;;20.95;100.00
33155;BME280;19511;42.682;23.332;2023-05-20T11:55:23;95115.22;;;20.63;100.00
33155;BME280;19511;42.682;23.332;2023-05-20T11:57:49;95190.78;;;21.18;95.71
33155;BME280;19511;42.682;23.332;2023-05-20T12:00:15;95192.56;;;21.55;98.47
33155;BME280;19511;42.682;23.332;2023-05-20T12:02:40;95171.59;;;21.71;96.53
33155;BME280;19511;42.682;23.332;2023-05-20T12:05:06;95184.53;;;22.08;98.57
33155;BME280;19511;42.682;23.332;2023-05-20T12:07:32;95176.00;;;22.17;98.08
33155;BME280;19511;42.682;23.332;2023-05-20T12:09:57;95175.88;;;22.41;95.86
33155;BME280;19511;42.682;23.332;2023-05-20T12:12:23;95098.38;;;22.01;95.06
33155;BME280;19511;42.682;23.332;2023-05-20T12:14:49;95153.22;;;22.35;95.16
33155;BME280;19511;42.682;23.332;2023-05-20T12:17:15;95164.78;;;22.23;96.47
33155;BME280;19511;42.682;23.332;2023-05-20T12:19:40;95185.50;;;21.90;97.22
33155;BME280;19511;42.682;23.332;2023-05-20T12:22:06;95188.06;;;21.48;99.02
33155;BME280;19511;42.682;23.332;2023-05-20T12:24:31;95185.16;;;21.18;99.51
33155;BME280;19511;42.682;23.332;2023-05-20T12:26:56;95193.59;;;20.94;99.69
33155;BME280;19511;42.682;23.332;2023-05-20T12:29:27;95194.94;;;20.75;100.00
33155;BME280;19511;42.682;23.332;2023-05-20T12:31:53;95204.00;;;20.79;100.00
33155;BME280;19511;42.682;23.332;2023-05-20T12:34:18;95229.16;;;20.73;100.00
33155;BME280;19511;42.682;23.332;2023-05-20T12:36:44;95227.31;;;20.61;100.00
33155;BME280;19511;42.682;23.332;2023-05-20T12:39:09;95177.50;;;20.28;100.00
33155;BME280;19511;42.682;23.332;2023-05-20T12:41:35;95225.13;;;20.55;100.00
33155;BME280;19511;42.682;23.332;2023-05-20T12:44:00;95241.31;;;20.27;99.99
33155;BME280;19511;42.682;23.332;2023-05-20T12:46:26;95176.84;;;19.90;98.21
33155;BME280;19511;42.682;23.332;2023-05-20T12:48:51;95158.28;;;19.74;98.49
33155;BME280;19511;42.682;23.332;2023-05-20T12:51:17;95237.50;;;19.97;98.80